sensor_id;sensor_type;location;lat;lon;timestamp;pressure;altitude;pressure_sealevel;temperature;humidity
57102;BME280;42982;54.558;18.508;2022-09-21T00:00:23;101288.38;;;12.49;81.83
57102;BME280;42982;54.558;18.508;2022-09-21T00:01:27;101289.97;;;12.55;82.14
57102;BME280;42982;54.558;18.508;2022-09-21T00:02:34;101291.56;;;12.61;82.16
57102;BME280;42982;54.558;18.508;2022-09-21T00:03:40;101292.13;;;12.53;82.11
57102;BME280;42982;54.558;18.508;2022-09-21T00:04:45;101292.41;;;12.51;82.14
57102;BME280;42982;54.558;18.508;2022-09-21T00:05:52;101295.38;;;12.50;82.39
57102;BME280;42982;54.558;18.508;2022-09-21T00:07:04;101295.91;;;12.52;82.30
57102;BME280;42982;54.558;18.508;2022-09-21T00:08:07;101295.38;;;12.50;82.22
57102;BME280;42982;54.558;18.508;2022-09-21T00:09:12;101295.09;;;12.46;82.38
57102;BME280;42982;54.558;18.508;2022-09-21T00:10:23;101292.66;;;12.50;82.57
57102;BME280;42982;54.558;18.508;2022-09-21T00:11:29;101290.22;;;12.53;82.49
57102;BME280;42982;54.558;18.508;2022-09-21T00:12:34;101299.91;;;12.55;82.50
57102;BME280;42982;54.558;18.508;2022-09-21T00:13:38;101292.66;;;12.55;82.67
57102;BME280;42982;54.558;18.508;2022-09-21T00:14:42;101292.94;;;12.59;82.57
57102;BME280;42982;54.558;18.508;2022-09-21T00:15:44;101294.81;;;12.58;82.58
57102;BME280;42982;54.558;18.508;2022-09-21T00:16:51;101295.34;;;12.60;82.58
57102;BME280;42982;54.558;18.508;2022-09-21T00:17:59;101290.75;;;12.61;82.55
57102;BME280;42982;54.558;18.508;2022-09-21T00:19:06;101298.84;;;12.61;82.46
57102;BME280;42982;54.558;18.508;2022-09-21T00:20:13;101305.06;;;12.61;82.47
57102;BME280;42982;54.558;18.508;2022-09-21T00:21:21;101298.84;;;12.61;82.45
57102;BME280;42982;54.558;18.508;2022-09-21T00:22:33;101305.06;;;12.61;82.78
57102;BME280;42982;54.558;18.508;2022-09-21T00:23:38;101305.06;;;12.61;82.47
57102;BME280;42982;54.558;18.508;2022-09-21T00:24:40;101303.44;;;12.60;82.59
57102;BME280;42982;54.558;18.508;2022-09-21T00:25:48;101310.47;;;12.61;82.50
57102;BME280;42982;54.558;18.508;2022-09-21T00:26:53;101307.22;;;12.59;82.34
57102;BME280;42982;54.558;18.508;2022-09-21T00:27:56;101307.75;;;12.56;82.45
57102;BME280;42982;54.558;18.508;2022-09-21T00:28:59;101309.91;;;12.54;82.30
57102;BME280;42982;54.558;18.508;2022-09-21T00:30:08;101305.31;;;12.55;82.45
57102;BME280;42982;54.558;18.508;2022-09-21T00:31:14;101303.72;;;12.53;82.41
57102;BME280;42982;54.558;18.508;2022-09-21T00:32:17;101303.72;;;12.53;82.33
57102;BME280;42982;54.558;18.508;2022-09-21T00:33:27;101303.75;;;12.48;82.40
57102;BME280;42982;54.558;18.508;2022-09-21T00:34:31;101305.09;;;12.46;82.19
57102;BME280;42982;54.558;18.508;2022-09-21T00:35:37;101308.84;;;12.45;82.24
57102;BME280;42982;54.558;18.508;2022-09-21T00:36:42;101305.34;;;12.44;82.36
57102;BME280;42982;54.558;18.508;2022-09-21T00:37:46;101304.53;;;12.44;82.37
57102;BME280;42982;54.558;18.508;2022-09-21T00:38:57;101307.25;;;12.44;82.43
57102;BME280;42982;54.558;18.508;2022-09-21T00:40:01;101309.13;;;12.43;82.37
57102;BME280;42982;54.558;18.508;2022-09-21T00:41:05;101309.94;;;12.44;82.26
57102;BME280;42982;54.558;18.508;2022-09-21T00:43:23;101303.19;;;12.41;82.09
57102;BME280;42982;54.558;18.508;2022-09-21T00:44:31;101313.72;;;12.43;82.06
57102;BME280;42982;54.558;18.508;2022-09-21T00:45:33;101312.63;;;12.44;82.08
57102;BME280;42982;54.558;18.508;2022-09-21T00:46:40;101309.13;;;12.43;82.03
57102;BME280;42982;54.558;18.508;2022-09-21T00:47:44;101303.44;;;12.45;82.18
57102;BME280;42982;54.558;18.508;2022-09-21T00:48:49;101306.69;;;12.47;82.20
57102;BME280;42982;54.558;18.508;2022-09-21T00:49:54;101304.25;;;12.50;82.35
57102;BME280;42982;54.558;18.508;2022-09-21T00:51:02;101302.09;;;12.52;82.37
57102;BME280;42982;54.558;18.508;2022-09-21T00:52:07;101297.50;;;12.53;82.20
57102;BME280;42982;54.558;18.508;2022-09-21T00:53:11;101298.31;;;12.53;82.42
57102;BME280;42982;54.558;18.508;2022-09-21T00:54:22;101305.59;;;12.53;82.40
57102;BME280;42982;54.558;18.508;2022-09-21T00:55:32;101301.84;;;12.49;82.41
57102;BME280;42982;54.558;18.508;2022-09-21T00:56:38;101305.91;;;12.46;82.33
57102;BME280;42982;54.558;18.508;2022-09-21T00:57:45;101316.13;;;12.44;82.35
57102;BME280;42982;54.558;18.508;2022-09-21T00:58:52;101309.94;;;12.39;82.38
57102;BME280;42982;54.558;18.508;2022-09-21T01:00:07;101306.72;;;12.37;82.38
57102;BME280;42982;54.558;18.508;2022-09-21T01:01:15;101300.78;;;12.35;82.40
57102;BME280;42982;54.558;18.508;2022-09-21T01:02:20;101307.81;;;12.31;82.55
57102;BME280;42982;54.558;18.508;2022-09-21T01:03:23;101308.91;;;12.29;82.47
57102;BME280;42982;54.558;18.508;2022-09-21T01:04:26;101311.03;;;12.27;82.40
57102;BME280;42982;54.558;18.508;2022-09-21T01:05:28;101304.84;;;12.27;82.19
57102;BME280;42982;54.558;18.508;2022-09-21T01:06:31;101307.25;;;12.28;82.16
57102;BME280;42982;54.558;18.508;2022-09-21T01:07:44;101308.06;;;12.29;82.00
57102;BME280;42982;54.558;18.508;2022-09-21T01:08:54;101317.78;;;12.30;82.06
57102;BME280;42982;54.558;18.508;2022-09-21T01:10:03;101308.91;;;12.29;81.69
57102;BME280;42982;54.558;18.508;2022-09-21T01:21:33;101313.47;;;12.34;81.14
57102;BME280;42982;54.558;18.508;2022-09-21T01:23:52;101318.56;;;12.36;81.11
57102;BME280;42982;54.558;18.508;2022-09-21T01:29:42;101317.53;;;12.26;81.37
57102;BME280;42982;54.558;18.508;2022-09-21T01:30:45;101317.22;;;12.23;81.14
57102;BME280;42982;54.558;18.508;2022-09-21T01:33:23;101315.38;;;12.18;81.13
57102;BME280;42982;54.558;18.508;2022-09-21T01:35:46;101307.81;;;12.15;81.51
57102;BME280;42982;54.558;18.508;2022-09-21T01:36:56;101311.59;;;12.14;81.70
57102;BME280;42982;54.558;18.508;2022-09-21T01:38:09;101311.34;;;12.11;82.01
57102;BME280;42982;54.558;18.508;2022-09-21T01:39:15;101309.19;;;12.08;81.80
57102;BME280;42982;54.558;18.508;2022-09-21T01:40:27;101318.03;;;12.13;82.02
57102;BME280;42982;54.558;18.508;2022-09-21T01:41:33;101325.06;;;12.09;81.88
57102;BME280;42982;54.558;18.508;2022-09-21T01:42:38;101335.56;;;12.00;81.77
57102;BME280;42982;54.558;18.508;2022-09-21T01:43:45;101325.06;;;11.94;82.08
57102;BME280;42982;54.558;18.508;2022-09-21T01:44:54;101323.44;;;11.98;82.23
57102;BME280;42982;54.558;18.508;2022-09-21T01:46:02;101321.56;;;12.03;82.37
57102;BME280;42982;54.558;18.508;2022-09-21T01:47:08;101319.41;;;12.05;82.27
57102;BME280;42982;54.558;18.508;2022-09-21T01:48:13;101330.47;;;12.09;82.26
57102;BME280;42982;54.558;18.508;2022-09-21T01:49:42;101322.38;;;12.14;82.56
57102;BME280;42982;54.558;18.508;2022-09-21T01:50:53;101329.91;;;12.12;82.51
57102;BME280;42982;54.558;18.508;2022-09-21T01:52:06;101325.59;;;12.06;82.76
57102;BME280;42982;54.558;18.508;2022-09-21T01:53:27;101332.06;;;12.10;82.76
57102;BME280;42982;54.558;18.508;2022-09-21T01:54:39;101328.84;;;12.08;82.78
57102;BME280;42982;54.558;18.508;2022-09-21T01:55:46;101322.91;;;12.06;82.89
57102;BME280;42982;54.558;18.508;2022-09-21T01:57:09;101332.59;;;12.07;83.12
57102;BME280;42982;54.558;18.508;2022-09-21T01:58:40;101329.38;;;12.10;83.21
57102;BME280;42982;54.558;18.508;2022-09-21T01:59:49;101326.66;;;12.10;83.14
57102;BME280;42982;54.558;18.508;2022-09-21T02:00:56;101325.63;;;12.11;83.13
57102;BME280;42982;54.558;18.508;2022-09-21T02:02:05;101326.66;;;12.10;82.98
57102;BME280;42982;54.558;18.508;2022-09-21T02:04:22;101328.03;;;12.08;83.14
57102;BME280;42982;54.558;18.508;2022-09-21T02:05:30;101331.00;;;12.06;83.07
57102;BME280;42982;54.558;18.508;2022-09-21T02:06:41;101331.28;;;12.04;82.92
57102;BME280;42982;54.558;18.508;2022-09-21T02:07:47;101327.75;;;12.04;82.77
57102;BME280;42982;54.558;18.508;2022-09-21T02:08:52;101327.22;;;12.02;82.94
57102;BME280;42982;54.558;18.508;2022-09-21T02:10:00;101330.97;;;12.01;82.66
57102;BME280;42982;54.558;18.508;2022-09-21T02:11:05;101324.53;;;12.02;82.82
57102;BME280;42982;54.558;18.508;2022-09-21T02:12:07;101333.13;;;12.04;82.74
57102;BME280;42982;54.558;18.508;2022-09-21T02:13:16;101329.38;;;12.05;82.69
57102;BME280;42982;54.558;18.508;2022-09-21T02:14:21;101328.28;;;12.01;82.61
57102;BME280;42982;54.558;18.508;2022-09-21T02:15:31;101328.28;;;12.01;82.80
57102;BME280;42982;54.558;18.508;2022-09-21T02:16:35;101327.47;;;12.00;82.75
57102;BME280;42982;54.558;18.508;2022-09-21T02:17:58;101324.25;;;11.93;82.82
57102;BME280;42982;54.558;18.508;2022-09-21T02:19:13;101328.28;;;11.91;82.86
57102;BME280;42982;54.558;18.508;2022-09-21T02:20:45;101325.06;;;11.89;82.68
57102;BME280;42982;54.558;18.508;2022-09-21T02:22:04;101327.22;;;11.87;82.86
57102;BME280;42982;54.558;18.508;2022-09-21T02:23:22;101319.09;;;11.81;82.81
57102;BME280;42982;54.558;18.508;2022-09-21T02:24:42;101324.47;;;11.81;83.01
57102;BME280;42982;54.558;18.508;2022-09-21T02:27:05;101329.59;;;11.83;82.79
57102;BME280;42982;54.558;18.508;2022-09-21T02:28:32;101326.66;;;11.85;82.99
57102;BME280;42982;54.558;18.508;2022-09-21T02:29:47;101321.25;;;11.79;82.88
57102;BME280;42982;54.558;18.508;2022-09-21T02:31:01;101326.66;;;11.79;82.74
57102;BME280;42982;54.558;18.508;2022-09-21T02:32:17;101336.34;;;11.80;82.54
57102;BME280;42982;54.558;18.508;2022-09-21T02:38:53;101334.41;;;11.55;83.01
57102;BME280;42982;54.558;18.508;2022-09-21T02:40:07;101334.94;;;11.52;82.85
57102;BME280;42982;54.558;18.508;2022-09-21T02:41:28;101336.25;;;11.50;83.26
57102;BME280;42982;54.558;18.508;2022-09-21T02:42:33;101333.31;;;11.46;83.00
57102;BME280;42982;54.558;18.508;2022-09-21T02:43:46;101335.97;;;11.41;83.43
57102;BME280;42982;54.558;18.508;2022-09-21T02:45:07;101329.25;;;11.39;83.44
57102;BME280;42982;54.558;18.508;2022-09-21T02:46:23;101331.41;;;11.42;83.55
57102;BME280;42982;54.558;18.508;2022-09-21T02:47:33;101331.13;;;11.38;83.88
57102;BME280;42982;54.558;18.508;2022-09-21T02:48:46;101335.44;;;11.44;83.82
57102;BME280;42982;54.558;18.508;2022-09-21T02:49:57;101329.53;;;11.47;83.70
57102;BME280;42982;54.558;18.508;2022-09-21T02:51:10;101328.47;;;11.48;84.17
57102;BME280;42982;54.558;18.508;2022-09-21T02:52:17;101327.66;;;11.53;83.83
57102;BME280;42982;54.558;18.508;2022-09-21T02:53:23;101336.00;;;11.56;83.74
57102;BME280;42982;54.558;18.508;2022-09-21T02:54:28;101332.78;;;11.54;84.20
57102;BME280;42982;54.558;18.508;2022-09-21T02:55:38;101327.41;;;11.59;84.07
57102;BME280;42982;54.558;18.508;2022-09-21T02:56:45;101334.13;;;11.62;83.71
57102;BME280;42982;54.558;18.508;2022-09-21T02:57:50;101334.69;;;11.64;83.81
57102;BME280;42982;54.558;18.508;2022-09-21T02:59:00;101337.09;;;11.66;83.68
57102;BME280;42982;54.558;18.508;2022-09-21T03:00:16;101333.06;;;11.63;83.84
57102;BME280;42982;54.558;18.508;2022-09-21T03:01:19;101336.28;;;11.60;83.56
57102;BME280;42982;54.558;18.508;2022-09-21T03:02:22;101347.59;;;11.52;83.93
57102;BME280;42982;54.558;18.508;2022-09-21T03:03:27;101346.75;;;11.46;83.73
57102;BME280;42982;54.558;18.508;2022-09-21T03:04:32;101349.19;;;11.43;83.64
57102;BME280;42982;54.558;18.508;2022-09-21T03:05:34;101363.16;;;11.40;83.84
57102;BME280;42982;54.558;18.508;2022-09-21T03:06:37;101352.69;;;11.38;84.32
57102;BME280;42982;54.558;18.508;2022-09-21T03:07:41;101356.69;;;11.41;84.48
57102;BME280;42982;54.558;18.508;2022-09-21T03:08:46;101354.25;;;11.29;85.08
57102;BME280;42982;54.558;18.508;2022-09-21T03:09:48;101351.56;;;11.29;85.32
57102;BME280;42982;54.558;18.508;2022-09-21T03:10:52;101352.63;;;11.28;85.38
57102;BME280;42982;54.558;18.508;2022-09-21T03:12:01;101352.91;;;11.31;85.56
57102;BME280;42982;54.558;18.508;2022-09-21T03:13:07;101352.91;;;11.31;86.19
57102;BME280;42982;54.558;18.508;2022-09-21T03:14:12;101357.47;;;11.31;86.06
57102;BME280;42982;54.558;18.508;2022-09-21T03:15:17;101363.09;;;11.24;86.24
57102;BME280;42982;54.558;18.508;2022-09-21T03:16:22;101367.69;;;11.24;86.56
57102;BME280;42982;54.558;18.508;2022-09-21T03:17:24;101360.69;;;11.23;87.25
57102;BME280;42982;54.558;18.508;2022-09-21T03:18:29;101363.66;;;11.31;87.00
57102;BME280;42982;54.558;18.508;2022-09-21T03:19:33;101364.53;;;11.42;87.59
57102;BME280;42982;54.558;18.508;2022-09-21T03:20:39;101355.41;;;11.48;87.71
57102;BME280;42982;54.558;18.508;2022-09-21T03:21:41;101362.41;;;11.54;87.42
57102;BME280;42982;54.558;18.508;2022-09-21T03:22:51;101357.31;;;11.58;87.36
57102;BME280;42982;54.558;18.508;2022-09-21T03:23:53;101361.34;;;11.60;87.38
57102;BME280;42982;54.558;18.508;2022-09-21T03:24:56;101367.03;;;11.64;87.56
57102;BME280;42982;54.558;18.508;2022-09-21T03:26:03;101361.34;;;11.66;87.35
57102;BME280;42982;54.558;18.508;2022-09-21T03:27:06;101361.63;;;11.69;87.33
57102;BME280;42982;54.558;18.508;2022-09-21T03:28:13;101361.09;;;11.67;87.42
57102;BME280;42982;54.558;18.508;2022-09-21T03:29:16;101365.97;;;11.70;87.36
57102;BME280;42982;54.558;18.508;2022-09-21T03:30:24;101364.34;;;11.74;87.28
57102;BME280;42982;54.558;18.508;2022-09-21T03:31:34;101368.66;;;11.75;87.40
57102;BME280;42982;54.558;18.508;2022-09-21T03:32:39;101366.50;;;11.77;87.02
57102;BME280;42982;54.558;18.508;2022-09-21T03:33:43;101363.53;;;11.79;86.89
57102;BME280;42982;54.558;18.508;2022-09-21T03:34:50;101360.59;;;11.80;87.05
57102;BME280;42982;54.558;18.508;2022-09-21T03:35:59;101365.16;;;11.80;87.32
57102;BME280;42982;54.558;18.508;2022-09-21T03:37:06;101356.81;;;11.81;86.93
57102;BME280;42982;54.558;18.508;2022-09-21T03:38:08;101367.31;;;11.78;86.65
57102;BME280;42982;54.558;18.508;2022-09-21T03:39:13;101361.66;;;11.74;86.61
57102;BME280;42982;54.558;18.508;2022-09-21T03:40:18;101375.16;;;11.79;86.33
57102;BME280;42982;54.558;18.508;2022-09-21T03:41:20;101369.47;;;11.76;86.72
57102;BME280;42982;54.558;18.508;2022-09-21T03:42:25;101367.84;;;11.75;86.33
57102;BME280;42982;54.558;18.508;2022-09-21T03:43:28;101370.00;;;11.73;86.18
57102;BME280;42982;54.558;18.508;2022-09-21T03:44:34;101368.38;;;11.72;86.09
57102;BME280;42982;54.558;18.508;2022-09-21T03:45:43;101366.75;;;11.71;86.28
57102;BME280;42982;54.558;18.508;2022-09-21T03:46:54;101372.97;;;11.71;85.89
57102;BME280;42982;54.558;18.508;2022-09-21T03:48:03;101379.44;;;11.70;85.94
57102;BME280;42982;54.558;18.508;2022-09-21T03:49:07;101374.03;;;11.70;85.87
57102;BME280;42982;54.558;18.508;2022-09-21T03:50:14;101379.94;;;11.72;85.45
57102;BME280;42982;54.558;18.508;2022-09-21T03:51:19;101379.41;;;11.75;85.54
57102;BME280;42982;54.558;18.508;2022-09-21T03:52:24;101380.50;;;11.74;85.60
57102;BME280;42982;54.558;18.508;2022-09-21T03:53:29;101382.41;;;11.74;85.33
57102;BME280;42982;54.558;18.508;2022-09-21T03:54:33;101384.81;;;11.75;85.24
57102;BME280;42982;54.558;18.508;2022-09-21T03:55:36;101384.28;;;11.78;84.98
57102;BME280;42982;54.558;18.508;2022-09-21T03:56:38;101385.09;;;11.79;84.96
57102;BME280;42982;54.558;18.508;2022-09-21T03:57:45;101389.66;;;11.78;85.17
57102;BME280;42982;54.558;18.508;2022-09-21T03:58:47;101391.84;;;11.76;84.74
57102;BME280;42982;54.558;18.508;2022-09-21T03:59:49;101384.00;;;11.75;84.89
57102;BME280;42982;54.558;18.508;2022-09-21T04:01:00;101388.34;;;11.76;84.56
57102;BME280;42982;54.558;18.508;2022-09-21T04:02:08;101388.59;;;11.74;84.37
57102;BME280;42982;54.558;18.508;2022-09-21T04:03:09;101396.94;;;11.73;84.52
57102;BME280;42982;54.558;18.508;2022-09-21T04:04:14;101406.91;;;11.72;84.36
57102;BME280;42982;54.558;18.508;2022-09-21T04:05:21;101407.94;;;11.66;84.34
57102;BME280;42982;54.558;18.508;2022-09-21T04:06:24;101406.91;;;11.67;84.31
57102;BME280;42982;54.558;18.508;2022-09-21T04:07:30;101406.63;;;11.64;84.65
57102;BME280;42982;54.558;18.508;2022-09-21T04:08:37;101409.56;;;11.57;84.40
57102;BME280;42982;54.558;18.508;2022-09-21T04:09:41;101406.03;;;11.51;84.96
57102;BME280;42982;54.558;18.508;2022-09-21T04:10:44;101407.59;;;11.37;84.62
57102;BME280;42982;54.558;18.508;2022-09-21T04:11:46;101409.97;;;11.28;85.33
57102;BME280;42982;54.558;18.508;2022-09-21T04:12:58;101412.44;;;11.35;85.80
57102;BME280;42982;54.558;18.508;2022-09-21T04:14:01;101411.31;;;11.31;85.50
57102;BME280;42982;54.558;18.508;2022-09-21T04:15:13;101413.16;;;11.25;86.03
57102;BME280;42982;54.558;18.508;2022-09-21T04:16:19;101400.22;;;11.17;85.96
57102;BME280;42982;54.558;18.508;2022-09-21T04:17:22;101402.88;;;11.12;85.97
57102;BME280;42982;54.558;18.508;2022-09-21T04:18:27;101398.03;;;11.09;86.44
57102;BME280;42982;54.558;18.508;2022-09-21T04:19:30;101401.00;;;11.07;87.00
57102;BME280;42982;54.558;18.508;2022-09-21T04:20:37;101398.59;;;11.11;86.76
57102;BME280;42982;54.558;18.508;2022-09-21T04:21:42;101397.53;;;11.22;86.70
57102;BME280;42982;54.558;18.508;2022-09-21T04:22:45;101399.19;;;11.23;86.92
57102;BME280;42982;54.558;18.508;2022-09-21T04:23:47;101398.66;;;11.26;86.51
57102;BME280;42982;54.558;18.508;2022-09-21T04:25:00;101404.59;;;11.33;86.89
57102;BME280;42982;54.558;18.508;2022-09-21T04:26:15;101398.69;;;11.36;86.51
57102;BME280;42982;54.558;18.508;2022-09-21T04:27:25;101392.50;;;11.36;86.81
57102;BME280;42982;54.558;18.508;2022-09-21T04:28:32;101394.41;;;11.35;86.83
57102;BME280;42982;54.558;18.508;2022-09-21T04:29:34;101392.78;;;11.40;87.02
57102;BME280;42982;54.558;18.508;2022-09-21T04:30:36;101394.41;;;11.41;86.99
57102;BME280;42982;54.558;18.508;2022-09-21T04:31:41;101398.44;;;11.43;86.51
57102;BME280;42982;54.558;18.508;2022-09-21T04:32:45;101400.91;;;11.45;86.69
57102;BME280;42982;54.558;18.508;2022-09-21T04:33:50;101394.16;;;11.47;86.39
57102;BME280;42982;54.558;18.508;2022-09-21T04:34:55;101394.97;;;11.53;86.43
57102;BME280;42982;54.558;18.508;2022-09-21T04:35:59;101396.06;;;11.52;86.43
57102;BME280;42982;54.558;18.508;2022-09-21T04:37:05;101397.97;;;11.56;86.54
57102;BME280;42982;54.558;18.508;2022-09-21T04:38:08;101395.28;;;11.62;86.28
57102;BME280;42982;54.558;18.508;2022-09-21T04:39:16;101397.19;;;11.66;86.46
57102;BME280;42982;54.558;18.508;2022-09-21T04:40:20;101395.84;;;11.69;86.38
57102;BME280;42982;54.558;18.508;2022-09-21T04:41:24;101400.97;;;11.70;86.38
57102;BME280;42982;54.558;18.508;2022-09-21T04:42:31;101395.59;;;11.70;86.34
57102;BME280;42982;54.558;18.508;2022-09-21T04:43:41;101407.72;;;11.73;86.13
57102;BME280;42982;54.558;18.508;2022-09-21T04:44:46;101399.38;;;11.74;86.07
57102;BME280;42982;54.558;18.508;2022-09-21T04:45:53;101400.44;;;11.78;85.88
57102;BME280;42982;54.558;18.508;2022-09-21T04:46:57;101405.31;;;11.81;86.10
57102;BME280;42982;54.558;18.508;2022-09-21T04:48:04;101402.34;;;11.83;85.92
57102;BME280;42982;54.558;18.508;2022-09-21T04:49:07;101403.97;;;11.84;86.01
57102;BME280;42982;54.558;18.508;2022-09-21T04:50:09;101400.78;;;11.87;86.13
57102;BME280;42982;54.558;18.508;2022-09-21T04:51:13;101404.28;;;11.88;85.79
57102;BME280;42982;54.558;18.508;2022-09-21T04:52:17;101411.03;;;11.90;85.75
57102;BME280;42982;54.558;18.508;2022-09-21T04:53:23;101409.13;;;11.91;85.61
57102;BME280;42982;54.558;18.508;2022-09-21T04:54:26;101405.38;;;11.92;85.87
57102;BME280;42982;54.558;18.508;2022-09-21T04:55:31;101403.22;;;11.89;85.66
57102;BME280;42982;54.558;18.508;2022-09-21T04:56:41;101420.44;;;11.88;85.58
57102;BME280;42982;54.558;18.508;2022-09-21T04:57:44;101408.84;;;11.87;85.62
57102;BME280;42982;54.558;18.508;2022-09-21T04:58:47;101408.56;;;11.83;85.72
57102;BME280;42982;54.558;18.508;2022-09-21T04:59:49;101417.41;;;11.74;85.92
57102;BME280;42982;54.558;18.508;2022-09-21T05:00:52;101409.59;;;11.67;85.78
57102;BME280;42982;54.558;18.508;2022-09-21T05:01:58;101417.16;;;11.70;86.05
57102;BME280;42982;54.558;18.508;2022-09-21T05:03:06;101416.88;;;11.72;85.93
57102;BME280;42982;54.558;18.508;2022-09-21T05:04:09;101414.44;;;11.75;86.19
57102;BME280;42982;54.558;18.508;2022-09-21T05:05:14;101419.03;;;11.75;86.28
57102;BME280;42982;54.558;18.508;2022-09-21T05:06:19;101416.09;;;11.76;86.04
57102;BME280;42982;54.558;18.508;2022-09-21T05:07:21;101415.28;;;11.76;86.17
57102;BME280;42982;54.558;18.508;2022-09-21T05:08:25;101418.19;;;11.69;85.96
57102;BME280;42982;54.558;18.508;2022-09-21T05:09:49;101410.41;;;11.68;86.10
57102;BME280;42982;54.558;18.508;2022-09-21T05:11:04;101412.03;;;11.74;86.46
57102;BME280;42982;54.558;18.508;2022-09-21T05:12:11;101417.69;;;11.77;86.22
57102;BME280;42982;54.558;18.508;2022-09-21T05:13:13;101419.31;;;11.73;86.21
57102;BME280;42982;54.558;18.508;2022-09-21T05:14:17;101416.34;;;11.70;86.42
57102;BME280;42982;54.558;18.508;2022-09-21T05:15:22;101418.19;;;11.69;86.30
57102;BME280;42982;54.558;18.508;2022-09-21T05:16:29;101415.25;;;11.71;86.48
57102;BME280;42982;54.558;18.508;2022-09-21T05:17:31;101417.66;;;11.72;86.53
57102;BME280;42982;54.558;18.508;2022-09-21T05:18:34;101425.22;;;11.75;86.60
57102;BME280;42982;54.558;18.508;2022-09-21T05:19:41;101426.34;;;11.79;86.61
57102;BME280;42982;54.558;18.508;2022-09-21T05:20:44;101416.88;;;11.82;86.50
57102;BME280;42982;54.558;18.508;2022-09-21T05:21:48;101423.41;;;11.86;86.56
57102;BME280;42982;54.558;18.508;2022-09-21T05:22:50;101422.09;;;11.89;86.33
57102;BME280;42982;54.558;18.508;2022-09-21T05:23:52;101425.28;;;11.91;86.67
57102;BME280;42982;54.558;18.508;2022-09-21T05:24:57;101419.38;;;11.94;86.35
57102;BME280;42982;54.558;18.508;2022-09-21T05:26:00;101430.97;;;11.94;86.48
57102;BME280;42982;54.558;18.508;2022-09-21T05:27:03;101427.22;;;11.95;86.39
57102;BME280;42982;54.558;18.508;2022-09-21T05:28:07;101419.94;;;11.96;86.38
57102;BME280;42982;54.558;18.508;2022-09-21T05:29:11;101427.22;;;11.95;86.18
57102;BME280;42982;54.558;18.508;2022-09-21T05:30:18;101418.84;;;11.97;86.44
57102;BME280;42982;54.558;18.508;2022-09-21T05:31:44;101425.59;;;11.99;86.27
57102;BME280;42982;54.558;18.508;2022-09-21T05:32:53;101426.16;;;12.01;86.50
57102;BME280;42982;54.558;18.508;2022-09-21T05:34:19;101423.19;;;12.03;86.06
57102;BME280;42982;54.558;18.508;2022-09-21T05:38:13;101440.41;;;12.07;86.37
57102;BME280;42982;54.558;18.508;2022-09-21T05:39:19;101439.88;;;12.10;86.13
57102;BME280;42982;54.558;18.508;2022-09-21T05:40:23;101441.81;;;12.15;86.34
57102;BME280;42982;54.558;18.508;2022-09-21T05:41:26;101438.56;;;12.23;86.05
57102;BME280;42982;54.558;18.508;2022-09-21T05:42:30;101442.34;;;12.22;86.07
57102;BME280;42982;54.558;18.508;2022-09-21T05:43:34;101443.41;;;12.16;86.12
57102;BME280;42982;54.558;18.508;2022-09-21T05:44:38;101449.59;;;12.16;86.14
57102;BME280;42982;54.558;18.508;2022-09-21T05:45:43;101444.22;;;12.16;86.08
57102;BME280;42982;54.558;18.508;2022-09-21T05:48:12;101443.97;;;12.18;85.81
57102;BME280;42982;54.558;18.508;2022-09-21T05:49:28;101455.28;;;12.20;85.69
57102;BME280;42982;54.558;18.508;2022-09-21T05:50:48;101451.75;;;12.09;85.98
57102;BME280;42982;54.558;18.508;2022-09-21T05:55:30;101451.25;;;12.27;85.62
57102;BME280;42982;54.558;18.508;2022-09-21T06:01:03;101450.44;;;12.58;84.86
57102;BME280;42982;54.558;18.508;2022-09-21T06:03:29;101453.44;;;12.56;84.86
57102;BME280;42982;54.558;18.508;2022-09-21T06:04:54;101448.56;;;12.53;85.01
57102;BME280;42982;54.558;18.508;2022-09-21T06:06:16;101453.69;;;12.49;85.08
57102;BME280;42982;54.558;18.508;2022-09-21T06:07:18;101456.66;;;12.48;85.10
57102;BME280;42982;54.558;18.508;2022-09-21T06:08:44;101442.66;;;12.46;85.09
57102;BME280;42982;54.558;18.508;2022-09-21T06:10:26;101455.31;;;12.45;85.15
57102;BME280;42982;54.558;18.508;2022-09-21T06:11:50;101447.75;;;12.47;85.29
57102;BME280;42982;54.558;18.508;2022-09-21T06:13:11;101452.34;;;12.47;85.09
57102;BME280;42982;54.558;18.508;2022-09-21T06:14:37;101448.03;;;12.46;85.30
57102;BME280;42982;54.558;18.508;2022-09-21T06:16:01;101453.41;;;12.51;84.95
57102;BME280;42982;54.558;18.508;2022-09-21T06:17:06;101451.28;;;12.53;85.13
57102;BME280;42982;54.558;18.508;2022-09-21T06:18:35;101456.69;;;12.58;85.33
57102;BME280;42982;54.558;18.508;2022-09-21T06:19:39;101460.69;;;12.61;85.13
57102;BME280;42982;54.558;18.508;2022-09-21T06:20:46;101457.22;;;12.65;85.31
57102;BME280;42982;54.558;18.508;2022-09-21T06:22:08;101453.16;;;12.73;85.31
57102;BME280;42982;54.558;18.508;2022-09-21T06:23:49;101458.03;;;12.86;84.64
57102;BME280;42982;54.558;18.508;2022-09-21T06:25:33;101463.13;;;13.03;84.59
57102;BME280;42982;54.558;18.508;2022-09-21T06:27:19;101453.09;;;13.24;83.94
57102;BME280;42982;54.558;18.508;2022-09-21T06:28:46;101456.41;;;13.81;82.93
57102;BME280;42982;54.558;18.508;2022-09-21T06:29:51;101459.13;;;14.94;79.86
57102;BME280;42982;54.558;18.508;2022-09-21T06:30:55;101458.34;;;16.60;75.54
57102;BME280;42982;54.558;18.508;2022-09-21T06:32:38;101455.06;;;17.78;71.27
57102;BME280;42982;54.558;18.508;2022-09-21T06:34:03;101465.66;;;17.38;71.10